createdAt,value
2017-08-17T00:00:31.028Z,8.97
2017-08-17T00:03:03.298Z,8.97
2017-08-17T00:05:34.569Z,8.87
2017-08-17T00:08:07.539Z,8.60
2017-08-17T00:10:42.012Z,7.83
2017-08-17T00:13:12.627Z,8.23
2017-08-17T00:15:42.981Z,8.90
2017-08-17T00:18:13.574Z,8.30
2017-08-17T00:20:44.639Z,8.90
2017-08-17T00:23:16.263Z,8.43
2017-08-17T00:25:47.455Z,10.03
2017-08-17T00:28:19.693Z,8.77
2017-08-17T00:30:51.358Z,8.23
2017-08-17T00:33:21.870Z,9.17
2017-08-17T00:35:52.206Z,8.73
2017-08-17T00:38:23.438Z,8.63
2017-08-17T00:40:56.545Z,8.40
2017-08-17T00:43:26.917Z,8.37
2017-08-17T00:45:56.652Z,8.30
2017-08-17T00:48:27.535Z,8.73
2017-08-17T00:51:00.670Z,8.20
2017-08-17T00:53:36.443Z,8.80
2017-08-17T00:56:08.298Z,7.63
2017-08-17T00:58:39.376Z,8.23
2017-08-17T01:01:08.634Z,9.23
2017-08-17T01:03:43.926Z,8.70
2017-08-17T01:06:15.046Z,8.73
2017-08-17T01:08:46.754Z,9.07
2017-08-17T01:11:15.138Z,9.30
2017-08-17T01:13:45.274Z,9.10
2017-08-17T01:16:14.966Z,10.47
2017-08-17T01:18:43.980Z,8.97
2017-08-17T01:23:53.968Z,9.20
2017-08-17T01:26:30.330Z,10.40
2017-08-17T01:31:40.589Z,10.80
2017-08-17T01:34:15.089Z,11.37
2017-08-17T01:36:47.621Z,10.30
2017-08-17T01:39:17.752Z,9.63
2017-08-17T01:41:49.337Z,9.57
2017-08-17T01:44:22.383Z,9.40
2017-08-17T01:46:52.383Z,9.60
2017-08-17T01:49:21.315Z,10.40
2017-08-17T01:51:50.435Z,9.40
2017-08-17T01:54:19.895Z,9.60
2017-08-17T01:56:49.991Z,9.70
2017-08-17T01:59:22.183Z,9.87
2017-08-17T02:01:52.312Z,10.47
2017-08-17T02:04:21.728Z,10.70
2017-08-17T02:06:53.342Z,10.03
2017-08-17T02:09:22.964Z,11.50
2017-08-17T02:11:54.573Z,10.23
2017-08-17T02:14:24.193Z,10.63
2017-08-17T02:16:54.168Z,10.30
2017-08-17T02:19:24.825Z,10.70
2017-08-17T02:21:56.861Z,10.50
2017-08-17T02:24:28.366Z,10.67
2017-08-17T02:27:01.532Z,10.20
2017-08-17T02:29:31.973Z,10.03
2017-08-17T02:32:02.582Z,9.80
2017-08-17T02:34:35.240Z,9.60
2017-08-17T02:37:04.452Z,9.90
2017-08-17T02:39:35.636Z,9.60
2017-08-17T02:42:06.306Z,10.10
2017-08-17T02:44:34.889Z,10.40
2017-08-17T02:47:06.889Z,10.37
2017-08-17T02:49:40.586Z,9.47
2017-08-17T02:52:08.687Z,10.10
2017-08-17T02:54:43.959Z,10.13
2017-08-17T02:57:14.453Z,10.20
2017-08-17T02:59:49.197Z,10.00
2017-08-17T03:02:19.145Z,9.97
2017-08-17T03:04:50.899Z,10.10
2017-08-17T03:07:20.477Z,9.17
2017-08-17T03:12:35.395Z,9.90
2017-08-17T03:15:10.352Z,10.47
2017-08-17T03:17:39.823Z,10.20
2017-08-17T03:20:12.697Z,10.77
2017-08-17T03:22:43.297Z,9.97
2017-08-17T03:25:13.286Z,9.57
2017-08-17T03:27:45.303Z,9.83
2017-08-17T03:30:16.599Z,10.30
2017-08-17T03:32:46.961Z,9.27
2017-08-17T03:35:16.395Z,9.70
2017-08-17T03:37:50.060Z,9.43
2017-08-17T03:40:18.705Z,9.40
2017-08-17T03:42:55.796Z,9.40
2017-08-17T03:45:25.459Z,9.67
2017-08-17T03:47:58.319Z,9.70
2017-08-17T03:50:27.175Z,8.97
2017-08-17T03:52:56.739Z,9.50
2017-08-17T03:55:30.436Z,11.43
2017-08-17T03:58:00.520Z,10.70
2017-08-17T04:00:29.892Z,11.50
2017-08-17T04:03:00.958Z,10.17
2017-08-17T04:05:28.629Z,11.23
2017-08-17T04:07:58.701Z,10.50
2017-08-17T08:49:03.143Z,9.00
2017-08-17T08:51:30.682Z,8.70
2017-08-17T08:53:58.211Z,8.87
2017-08-17T08:56:25.732Z,8.20
2017-08-17T08:58:53.369Z,8.90
2017-08-17T09:01:20.935Z,8.80
2017-08-17T09:03:48.589Z,7.80
2017-08-17T09:06:17.089Z,10.40
2017-08-17T09:08:44.722Z,7.63
2017-08-17T09:11:12.297Z,8.10
2017-08-17T09:13:39.810Z,9.37
2017-08-17T09:16:07.370Z,9.00
2017-08-17T09:18:34.924Z,8.30
2017-08-17T09:21:02.443Z,7.93
2017-08-17T09:23:29.928Z,7.20
2017-08-17T09:25:57.436Z,7.60
2017-08-17T09:28:24.986Z,7.73
2017-08-17T09:30:52.771Z,7.07
2017-08-17T09:33:20.288Z,6.60
2017-08-17T09:35:47.786Z,7.33
2017-08-17T09:38:15.324Z,7.40
2017-08-17T09:40:42.846Z,7.93
2017-08-17T09:43:10.386Z,7.73
2017-08-17T09:45:37.939Z,6.90
2017-08-17T09:48:05.493Z,7.20
2017-08-17T09:50:33.011Z,7.27
2017-08-17T09:53:00.566Z,7.23
2017-08-17T09:55:28.123Z,6.90
2017-08-17T09:57:56.130Z,7.37
2017-08-17T10:00:23.638Z,7.20
2017-08-17T10:02:51.874Z,7.30
2017-08-17T10:05:19.591Z,7.07
2017-08-17T10:07:47.109Z,7.73
2017-08-17T10:10:14.667Z,7.23
2017-08-17T10:12:42.267Z,6.77
2017-08-17T10:15:10.504Z,7.53
2017-08-17T10:17:37.983Z,7.03
2017-08-17T10:20:05.515Z,7.33
2017-08-17T10:22:33.760Z,7.10
2017-08-17T10:25:01.301Z,7.73
2017-08-17T10:27:28.849Z,7.40
2017-08-17T10:29:56.365Z,7.30
2017-08-17T10:32:23.867Z,7.63
2017-08-17T10:34:51.381Z,7.37
2017-08-17T10:37:19.417Z,7.87
2017-08-17T10:39:46.933Z,6.90
2017-08-17T10:42:14.458Z,7.53
2017-08-17T10:44:41.995Z,7.43
2017-08-17T10:47:09.494Z,7.40
2017-08-17T10:49:37.046Z,6.90
2017-08-17T10:52:04.558Z,7.40
2017-08-17T10:54:32.066Z,7.10
2017-08-17T10:56:59.634Z,6.40
2017-08-17T10:59:27.271Z,7.37
2017-08-17T11:01:54.836Z,7.20
2017-08-17T11:04:22.344Z,7.40
2017-08-17T11:06:49.883Z,7.87
2017-08-17T11:09:17.400Z,8.13
2017-08-17T11:11:44.976Z,7.50
2017-08-17T11:14:12.515Z,7.50
2017-08-17T11:16:40.059Z,6.97
2017-08-17T11:19:07.609Z,7.17
2017-08-17T11:21:35.124Z,7.23
2017-08-17T11:24:03.303Z,7.10
2017-08-17T11:26:30.799Z,7.00
2017-08-17T11:28:58.343Z,7.20
2017-08-17T11:31:25.940Z,6.73
2017-08-17T11:33:53.472Z,6.57
2017-08-17T11:36:21.073Z,6.70
2017-08-17T11:38:48.691Z,7.00
2017-08-17T11:41:16.223Z,6.40
2017-08-17T11:43:43.738Z,6.40
2017-08-17T11:46:11.242Z,6.43
2017-08-17T11:48:38.180Z,6.50
2017-08-17T11:51:05.138Z,6.70
2017-08-17T11:53:32.672Z,6.80
2017-08-17T11:56:00.164Z,6.23
2017-08-17T11:58:27.763Z,6.03
2017-08-17T12:00:55.255Z,6.27
2017-08-17T12:03:22.762Z,6.33
2017-08-17T12:05:50.280Z,5.60
2017-08-17T12:08:17.789Z,5.30
2017-08-17T12:10:45.391Z,6.40
2017-08-17T12:13:12.912Z,6.80
2017-08-17T12:15:41.367Z,6.17
2017-08-17T12:18:14.824Z,5.90
2017-08-17T12:20:42.325Z,5.90
2017-08-17T12:23:09.844Z,6.20
2017-08-17T12:25:37.798Z,6.17
2017-08-17T12:28:05.415Z,5.93
2017-08-17T12:30:32.967Z,5.63
2017-08-17T12:33:00.502Z,6.70
2017-08-17T12:35:28.183Z,6.07
2017-08-17T12:37:56.778Z,6.50
2017-08-17T12:40:24.338Z,6.07
2017-08-17T12:42:51.875Z,5.90
2017-08-17T12:45:19.415Z,6.07
2017-08-17T12:47:46.925Z,6.00
2017-08-17T12:50:14.450Z,6.17
2017-08-17T12:52:41.980Z,6.87
2017-08-17T12:55:09.477Z,7.30
2017-08-17T12:57:37.032Z,7.00
2017-08-17T13:00:04.537Z,7.00
2017-08-17T13:02:32.014Z,6.10
2017-08-17T13:04:59.527Z,5.70
2017-08-17T13:07:27.041Z,5.17
2017-08-17T13:09:54.598Z,6.40
2017-08-17T13:12:22.100Z,7.03
2017-08-17T13:14:49.635Z,7.90
2017-08-17T13:17:17.173Z,6.20
2017-08-17T13:19:44.668Z,5.80
2017-08-17T13:22:12.191Z,5.73
2017-08-17T13:24:39.684Z,5.57
2017-08-17T13:27:07.220Z,6.97
2017-08-17T13:29:34.700Z,7.20
2017-08-17T13:32:02.236Z,8.00
2017-08-17T13:34:29.750Z,7.90
2017-08-17T13:36:57.239Z,8.03
2017-08-17T13:39:24.749Z,7.60
2017-08-17T13:41:52.266Z,8.80
2017-08-17T13:44:19.818Z,7.87
2017-08-17T13:46:47.324Z,7.43
2017-08-17T13:49:14.894Z,7.67
2017-08-17T13:51:42.397Z,6.80
2017-08-17T13:54:09.929Z,6.60
2017-08-17T13:56:37.590Z,7.00
2017-08-17T13:59:05.225Z,8.10
2017-08-17T14:01:32.784Z,7.30
2017-08-17T14:04:00.350Z,7.73
2017-08-17T14:06:28.019Z,7.17
2017-08-17T14:08:55.631Z,6.60
2017-08-17T14:11:23.147Z,6.20
2017-08-17T14:13:50.803Z,5.30
2017-08-17T14:16:18.290Z,5.60
2017-08-17T14:18:45.844Z,5.13
2017-08-17T14:21:13.362Z,5.90
2017-08-17T14:23:40.857Z,5.10
2017-08-17T14:26:08.391Z,5.27
2017-08-17T14:28:35.895Z,5.27
2017-08-17T14:31:03.409Z,5.50
2017-08-17T14:33:30.925Z,5.67
2017-08-17T14:35:58.418Z,5.63
2017-08-17T14:38:26.000Z,5.50
2017-08-17T14:40:53.494Z,6.60
2017-08-17T14:43:21.029Z,6.17
2017-08-17T14:45:48.575Z,6.40
2017-08-17T14:48:16.130Z,5.80
2017-08-17T14:50:43.686Z,6.33
2017-08-17T14:53:11.239Z,5.37
2017-08-17T14:55:38.818Z,6.00
2017-08-17T14:58:06.437Z,6.23
2017-08-17T15:00:33.994Z,5.60
2017-08-17T15:03:01.621Z,6.10
2017-08-17T15:05:29.203Z,6.33
2017-08-17T15:07:56.790Z,6.17
2017-08-17T15:10:24.370Z,6.07
2017-08-17T15:12:51.885Z,5.90
2017-08-17T15:15:19.380Z,5.33
2017-08-17T15:17:46.954Z,5.73
2017-08-17T15:20:14.483Z,5.83
2017-08-17T15:22:41.981Z,6.10
2017-08-17T15:25:09.548Z,6.13
2017-08-17T15:27:37.102Z,5.90
2017-08-17T15:30:04.594Z,6.17
2017-08-17T15:32:32.134Z,6.10
2017-08-17T15:34:59.632Z,5.97
2017-08-17T15:37:27.167Z,6.20
2017-08-17T15:39:54.693Z,6.07
2017-08-17T15:42:22.183Z,6.30
2017-08-17T15:44:49.722Z,5.93
2017-08-17T15:47:17.224Z,5.70
2017-08-17T15:49:44.732Z,6.60
2017-08-17T15:52:12.315Z,6.80
2017-08-17T15:54:39.821Z,6.10
2017-08-17T15:57:07.328Z,6.40
2017-08-17T15:59:34.809Z,6.20
2017-08-17T16:02:02.279Z,5.70
2017-08-17T16:04:29.820Z,6.00
2017-08-17T16:06:57.309Z,6.00
2017-08-17T16:09:24.812Z,6.23
2017-08-17T16:11:52.307Z,6.20
2017-08-17T16:14:19.892Z,6.27
2017-08-17T16:16:47.466Z,7.10
2017-08-17T16:19:15.004Z,6.10
2017-08-17T16:21:42.665Z,6.13
2017-08-17T16:24:10.142Z,6.40
2017-08-17T16:26:37.692Z,6.00
2017-08-17T16:29:05.163Z,5.87
2017-08-17T16:31:32.813Z,6.20
2017-08-17T16:34:00.338Z,6.00
2017-08-17T16:36:27.862Z,5.83
2017-08-17T16:38:55.482Z,6.77
2017-08-17T16:41:25.120Z,5.90
2017-08-17T16:43:52.627Z,6.27
2017-08-17T16:46:20.330Z,6.50
2017-08-17T16:48:47.894Z,6.23
2017-08-17T16:51:15.440Z,6.50
2017-08-17T16:53:42.924Z,6.73
2017-08-17T16:56:10.436Z,7.13
2017-08-17T16:58:37.994Z,6.10
2017-08-17T17:01:06.095Z,6.87
2017-08-17T17:03:34.311Z,5.73
2017-08-17T17:06:01.805Z,6.70
2017-08-17T17:08:30.308Z,7.60
2017-08-17T17:10:57.897Z,6.10
2017-08-17T17:13:25.405Z,6.30
2017-08-17T17:15:52.913Z,6.30
2017-08-17T17:18:20.679Z,6.33
2017-08-17T17:20:48.226Z,6.30
2017-08-17T17:23:15.789Z,6.33
2017-08-17T17:25:43.844Z,6.47
2017-08-17T17:28:11.443Z,6.50
2017-08-17T17:30:39.400Z,7.80
2017-08-17T17:33:06.936Z,6.60
2017-08-17T17:35:34.425Z,6.57
2017-08-17T17:38:02.081Z,6.57
2017-08-17T17:40:29.626Z,7.50
2017-08-17T17:42:57.210Z,6.43
2017-08-17T17:45:24.773Z,6.80
2017-08-17T17:47:52.435Z,6.70
2017-08-17T17:50:21.845Z,6.73
2017-08-17T17:52:49.472Z,6.40
2017-08-17T17:55:17.035Z,6.80
2017-08-17T17:57:44.556Z,6.97
2017-08-17T18:00:12.237Z,7.13
2017-08-17T18:02:39.803Z,7.67
2017-08-17T18:05:07.979Z,7.70
2017-08-17T18:07:35.694Z,8.00
2017-08-17T18:10:03.215Z,7.93
2017-08-17T18:12:32.050Z,7.73
2017-08-17T18:14:59.731Z,8.00
2017-08-17T18:17:27.381Z,7.80
2017-08-17T18:19:54.881Z,8.03
2017-08-17T18:22:22.544Z,8.43
2017-08-17T18:24:50.052Z,7.87
2017-08-17T18:27:17.712Z,8.50
2017-08-17T18:29:46.051Z,7.70
2017-08-17T18:32:13.675Z,7.87
2017-08-17T18:34:41.284Z,8.77
2017-08-17T18:37:08.779Z,8.10
2017-08-17T18:39:36.306Z,8.07
2017-08-17T18:42:03.839Z,8.00
2017-08-17T18:44:31.519Z,8.93
2017-08-17T18:46:59.139Z,8.00
2017-08-17T18:49:26.926Z,9.20
2017-08-17T18:51:55.384Z,8.30
2017-08-17T18:54:23.187Z,8.37
2017-08-17T18:56:51.248Z,8.70
2017-08-17T18:59:18.914Z,7.90
2017-08-17T19:01:46.457Z,8.83
2017-08-17T19:04:15.472Z,8.30
2017-08-17T19:06:43.098Z,8.80
2017-08-17T19:09:11.586Z,9.27
2017-08-17T19:11:40.262Z,8.73
2017-08-17T19:14:07.865Z,8.57
2017-08-17T19:16:36.873Z,8.13
2017-08-17T19:19:06.793Z,8.50
2017-08-17T19:21:34.432Z,9.47
2017-08-17T19:24:02.066Z,9.30
2017-08-17T19:26:29.631Z,10.03
2017-08-17T19:28:57.340Z,9.37
2017-08-17T19:31:27.254Z,10.10
2017-08-17T19:33:55.936Z,11.00
2017-08-17T19:36:23.829Z,10.80
2017-08-17T19:38:51.987Z,11.83
2017-08-17T19:41:19.646Z,10.47
2017-08-17T19:43:47.261Z,10.93
2017-08-17T19:46:14.881Z,9.60
2017-08-17T19:48:42.624Z,9.60
2017-08-17T19:51:10.327Z,8.93
2017-08-17T19:53:38.160Z,8.70
2017-08-17T19:56:07.342Z,10.07
2017-08-17T19:58:35.573Z,10.07
2017-08-17T20:01:03.095Z,10.07
2017-08-17T20:03:30.840Z,11.30
2017-08-17T20:05:58.438Z,10.10
2017-08-17T20:08:26.068Z,10.73
2017-08-17T20:10:53.668Z,9.40
2017-08-17T20:13:21.496Z,9.60
2017-08-17T20:15:49.288Z,9.63
2017-08-17T20:18:16.990Z,8.97
2017-08-17T20:20:44.769Z,9.90
2017-08-17T20:23:12.360Z,9.00
2017-08-17T20:25:42.813Z,8.97
2017-08-17T20:28:10.780Z,11.27
2017-08-17T20:30:38.702Z,10.50
2017-08-17T20:33:06.906Z,11.77
2017-08-17T20:35:34.570Z,10.53
2017-08-17T20:38:02.414Z,9.73
2017-08-17T20:40:29.970Z,10.00
2017-08-17T20:42:57.832Z,9.93
2017-08-17T20:45:25.462Z,9.70
2017-08-17T20:47:55.222Z,9.50
2017-08-17T20:50:23.514Z,8.70
2017-08-17T20:52:51.063Z,9.33
2017-08-17T20:55:18.848Z,9.93
2017-08-17T20:57:46.407Z,9.67
2017-08-17T21:00:14.336Z,10.80
2017-08-17T21:02:42.092Z,11.03
2017-08-17T21:05:09.812Z,9.97
2017-08-17T21:07:37.365Z,10.10
2017-08-17T21:10:05.025Z,10.70
2017-08-17T21:12:33.375Z,11.07
2017-08-17T21:15:00.961Z,10.13
2017-08-17T21:17:28.593Z,10.13
2017-08-17T21:19:56.384Z,10.27
2017-08-17T21:22:24.699Z,10.70
2017-08-17T21:24:52.308Z,9.80
2017-08-17T21:27:19.940Z,10.00
2017-08-17T21:29:47.625Z,10.63
2017-08-17T21:32:15.350Z,10.23
2017-08-17T21:34:42.900Z,10.57
2017-08-17T21:37:10.488Z,10.20
2017-08-17T21:39:38.143Z,10.50
2017-08-17T21:42:05.802Z,10.17
2017-08-17T21:44:35.056Z,10.07
2017-08-17T21:47:02.636Z,9.57
2017-08-17T21:49:31.193Z,9.93
2017-08-17T21:51:59.525Z,10.13
2017-08-17T21:54:31.045Z,10.63
2017-08-17T21:56:59.346Z,9.73
2017-08-17T21:59:27.795Z,9.50
2017-08-17T22:01:57.298Z,9.90
2017-08-17T22:04:24.981Z,10.27
2017-08-17T22:06:52.755Z,9.40
2017-08-17T22:09:23.148Z,9.83
2017-08-17T22:11:52.887Z,9.87
2017-08-17T22:14:20.482Z,9.60
2017-08-17T22:16:49.502Z,9.47
2017-08-17T22:19:18.307Z,10.10
2017-08-17T22:21:49.894Z,10.57
2017-08-17T22:24:19.596Z,9.67
2017-08-17T22:26:48.476Z,9.83
2017-08-17T22:29:16.875Z,9.80
2017-08-17T22:31:44.601Z,9.43
2017-08-17T22:34:12.215Z,10.03
2017-08-17T22:36:41.302Z,11.30
2017-08-17T22:39:08.893Z,11.40
2017-08-17T22:41:36.500Z,10.90
2017-08-17T22:44:04.054Z,11.73
2017-08-17T22:46:31.570Z,12.27
2017-08-17T22:48:59.196Z,12.77
2017-08-17T22:51:27.802Z,11.97
2017-08-17T22:53:55.318Z,11.70
2017-08-17T22:56:22.853Z,11.20
2017-08-17T22:58:52.299Z,10.70
2017-08-17T23:01:19.836Z,9.63
2017-08-17T23:03:47.509Z,9.93
2017-08-17T23:06:17.302Z,10.53
2017-08-17T23:08:44.884Z,10.27
2017-08-17T23:11:12.816Z,9.40
2017-08-17T23:13:40.915Z,9.47
2017-08-17T23:16:08.534Z,10.27
2017-08-17T23:18:38.012Z,10.50
2017-08-17T23:21:05.624Z,9.80
2017-08-17T23:23:33.182Z,10.30
2017-08-17T23:26:01.960Z,10.33
2017-08-17T23:28:29.551Z,11.60
2017-08-17T23:30:57.182Z,9.80
2017-08-17T23:33:25.612Z,9.03
2017-08-17T23:35:53.157Z,9.67
2017-08-17T23:38:21.585Z,9.47
2017-08-17T23:40:49.143Z,9.27
2017-08-17T23:43:17.304Z,9.43
2017-08-17T23:45:44.869Z,8.93
2017-08-17T23:48:12.454Z,9.37
2017-08-17T23:50:40.037Z,10.13
2017-08-17T23:53:08.258Z,9.53
2017-08-17T23:55:37.069Z,9.43
2017-08-17T23:58:05.103Z,10.80
